createdAt,value
2023-02-11T00:01:01.898Z,44.95
2023-02-11T00:03:29.927Z,44.60
2023-02-11T00:05:59.063Z,45.97
2023-02-11T00:08:29.175Z,42.65
2023-02-11T00:10:58.871Z,41.85
2023-02-11T00:13:26.997Z,43.25
2023-02-11T00:15:55.016Z,42.47
2023-02-11T00:18:22.851Z,41.17
2023-02-11T00:20:50.904Z,43.17
2023-02-11T00:23:18.891Z,41.03
2023-02-11T00:25:48.279Z,39.92
2023-02-11T00:28:16.376Z,41.65
2023-02-11T00:30:44.548Z,38.90
2023-02-11T00:33:12.909Z,41.97
2023-02-11T00:35:41.360Z,43.40
2023-02-11T00:38:09.288Z,44.25
2023-02-11T00:40:38.789Z,44.38
2023-02-11T00:43:07.999Z,43.60
2023-02-11T00:45:35.921Z,43.42
2023-02-11T00:48:04.112Z,44.97
2023-02-11T00:50:31.990Z,42.20
2023-02-11T00:53:00.031Z,40.50
2023-02-11T00:55:27.920Z,40.72
2023-02-11T00:57:56.402Z,40.65
2023-02-11T01:00:25.954Z,43.00
2023-02-11T01:02:54.048Z,41.55
2023-02-11T01:05:23.214Z,44.10
2023-02-11T01:07:51.122Z,43.92
2023-02-11T01:10:19.201Z,43.22
2023-02-11T01:12:47.157Z,41.80
2023-02-11T01:15:15.889Z,41.42
2023-02-11T01:17:45.242Z,41.10
2023-02-11T01:20:15.237Z,39.63
2023-02-11T01:22:43.353Z,41.50
2023-02-11T01:25:11.566Z,41.63
2023-02-11T01:27:39.825Z,40.70
2023-02-11T01:30:09.057Z,41.83
2023-02-11T01:32:37.293Z,42.47
2023-02-11T01:35:07.040Z,41.35
2023-02-11T01:37:36.990Z,39.75
2023-02-11T01:40:05.485Z,40.42
2023-02-11T01:42:34.882Z,40.05
2023-02-11T01:45:03.158Z,41.22
2023-02-11T01:47:31.054Z,38.30
2023-02-11T01:50:00.409Z,38.75
2023-02-11T01:52:32.090Z,41.67
2023-02-11T01:55:19.600Z,43.00
2023-02-11T01:57:52.470Z,41.78
2023-02-11T02:00:22.765Z,41.50
2023-02-11T02:02:54.365Z,40.13
2023-02-11T02:05:29.207Z,39.75
2023-02-11T02:08:01.576Z,39.42
2023-02-11T02:10:30.126Z,40.13
2023-02-11T02:12:58.387Z,44.92
2023-02-11T02:15:27.949Z,41.13
2023-02-11T02:18:04.630Z,41.70
2023-02-11T02:20:38.810Z,43.35
2023-02-11T02:23:17.230Z,42.47
2023-02-11T02:26:03.845Z,47.85
2023-02-11T02:28:46.530Z,44.58
2023-02-11T02:31:22.566Z,47.38
2023-02-11T02:33:54.501Z,45.50
2023-02-11T02:36:24.605Z,45.40
2023-02-11T02:38:55.080Z,44.60
2023-02-11T02:41:24.859Z,49.80
2023-02-11T02:43:52.891Z,47.38
2023-02-11T02:46:22.022Z,52.85
2023-02-11T02:48:50.779Z,52.03
2023-02-11T02:51:31.171Z,56.13
2023-02-11T02:54:05.255Z,54.08
2023-02-11T02:56:37.640Z,50.22
2023-02-11T02:59:15.760Z,49.17
2023-02-11T03:01:48.969Z,53.55
2023-02-11T03:04:21.134Z,57.42
2023-02-11T03:06:54.411Z,49.20
2023-02-11T03:09:25.334Z,54.28
2023-02-11T03:11:53.400Z,55.83
2023-02-11T03:14:22.168Z,59.03
2023-02-11T03:16:50.596Z,58.90
2023-02-11T03:19:20.048Z,61.63
2023-02-11T03:21:48.682Z,62.00
2023-02-11T03:24:21.552Z,60.22
2023-02-11T03:26:51.063Z,58.78
2023-02-11T03:29:27.108Z,59.45
2023-02-11T03:32:00.729Z,61.45
2023-02-11T03:34:30.930Z,60.22
2023-02-11T03:37:01.774Z,49.42
2023-02-11T03:39:33.563Z,53.35
2023-02-11T03:42:02.464Z,53.97
2023-02-11T03:44:32.476Z,53.70
2023-02-11T03:47:00.897Z,54.97
2023-02-11T03:49:29.806Z,47.08
2023-02-11T03:51:58.128Z,46.53
2023-02-11T03:54:29.281Z,45.05
2023-02-11T03:57:00.509Z,45.70
2023-02-11T03:59:28.645Z,44.72
2023-02-11T04:01:56.740Z,46.05
2023-02-11T04:04:25.246Z,44.67
2023-02-11T04:06:53.172Z,45.78
2023-02-11T04:09:21.043Z,47.42
2023-02-11T04:11:48.903Z,46.28
2023-02-11T04:14:18.172Z,48.47
2023-02-11T04:16:46.125Z,46.70
2023-02-11T04:19:13.977Z,50.70
2023-02-11T04:21:44.201Z,48.97
2023-02-11T04:24:12.141Z,52.38
2023-02-11T04:26:40.004Z,52.60
2023-02-11T04:29:07.992Z,52.75
2023-02-11T04:31:37.331Z,52.28
2023-02-11T04:34:05.270Z,52.33
2023-02-11T04:36:33.151Z,52.15
2023-02-11T04:39:01.144Z,54.28
2023-02-11T04:41:29.126Z,59.17
2023-02-11T04:43:57.153Z,53.60
2023-02-11T04:46:25.093Z,51.28
2023-02-11T04:48:57.386Z,53.75
2023-02-11T04:51:25.818Z,53.33
2023-02-11T04:53:53.723Z,54.80
2023-02-11T04:56:21.807Z,54.72
2023-02-11T04:58:49.754Z,55.75
2023-02-11T05:01:17.996Z,53.60
2023-02-11T05:03:46.323Z,54.08
2023-02-11T05:06:15.708Z,52.63
2023-02-11T05:08:43.623Z,57.97
2023-02-11T05:11:15.550Z,55.03
2023-02-11T05:13:43.537Z,57.30
2023-02-11T05:16:11.903Z,57.65
2023-02-11T05:18:41.169Z,53.92
2023-02-11T05:21:09.509Z,54.70
2023-02-11T05:23:39.805Z,58.88
2023-02-11T05:26:08.074Z,52.92
2023-02-11T05:28:36.196Z,56.78
2023-02-11T05:31:04.370Z,60.65
2023-02-11T05:33:32.392Z,56.88
2023-02-11T05:36:01.031Z,63.15
2023-02-11T05:38:29.275Z,83.22
2023-02-11T05:40:58.561Z,105.85
2023-02-11T05:43:26.758Z,63.92
2023-02-11T05:45:54.940Z,64.75
2023-02-11T05:48:22.941Z,62.85
2023-02-11T05:50:50.849Z,60.90
2023-02-11T05:53:18.752Z,55.17
2023-02-11T05:55:47.046Z,53.85
2023-02-11T05:58:16.419Z,54.53
2023-02-11T06:00:44.351Z,55.88
2023-02-11T06:03:12.318Z,55.90
2023-02-11T06:05:40.883Z,56.97
2023-02-11T06:08:08.756Z,55.22
2023-02-11T06:10:36.979Z,53.88
2023-02-11T06:13:05.037Z,59.17
2023-02-11T06:15:34.458Z,55.63
2023-02-11T06:18:02.419Z,61.22
2023-02-11T06:20:30.581Z,57.92
2023-02-11T06:22:58.506Z,59.08
2023-02-11T06:25:26.577Z,57.15
2023-02-11T06:27:54.621Z,57.60
2023-02-11T06:30:22.879Z,56.67
2023-02-11T06:32:52.492Z,59.20
2023-02-11T06:35:20.687Z,57.25
2023-02-11T06:37:49.762Z,59.50
2023-02-11T06:40:17.785Z,63.22
2023-02-11T06:42:45.782Z,57.72
2023-02-11T06:45:14.175Z,57.22
2023-02-11T06:47:43.935Z,56.10
2023-02-11T06:50:15.175Z,57.85
2023-02-11T06:52:44.049Z,56.45
2023-02-11T06:55:12.007Z,58.40
2023-02-11T06:57:40.329Z,61.42
2023-02-11T07:00:09.306Z,58.80
2023-02-11T07:02:37.281Z,57.47
2023-02-11T07:05:06.777Z,57.83
2023-02-11T07:07:36.263Z,59.47
2023-02-11T07:10:05.919Z,59.70
2023-02-11T07:12:34.064Z,57.38
2023-02-11T07:15:02.038Z,57.15
2023-02-11T07:17:29.964Z,59.38
2023-02-11T07:19:57.883Z,63.47
2023-02-11T07:22:25.826Z,62.97
2023-02-11T07:24:55.266Z,62.78
2023-02-11T07:27:23.257Z,65.28
2023-02-11T07:29:51.092Z,64.45
2023-02-11T07:32:21.902Z,64.40
2023-02-11T07:34:49.973Z,60.03
2023-02-11T07:37:18.508Z,57.38
2023-02-11T07:39:46.450Z,57.53
2023-02-11T07:42:15.753Z,57.33
2023-02-11T07:44:44.421Z,57.63
2023-02-11T07:47:12.290Z,58.28
2023-02-11T07:49:40.256Z,59.50
2023-02-11T07:52:08.214Z,59.83
2023-02-11T07:54:36.177Z,56.17
2023-02-11T07:57:04.174Z,57.25
2023-02-11T07:59:33.893Z,55.60
2023-02-11T08:02:02.092Z,54.80
2023-02-11T08:04:30.062Z,52.58
2023-02-11T08:06:59.271Z,51.30
2023-02-11T08:09:27.376Z,49.10
2023-02-11T08:11:55.328Z,46.58
2023-02-11T08:14:25.330Z,46.22
2023-02-11T08:16:54.768Z,44.22
2023-02-11T08:19:22.681Z,44.53
2023-02-11T08:21:50.517Z,46.30
2023-02-11T08:24:18.410Z,41.95
2023-02-11T08:26:46.333Z,42.58
2023-02-11T08:29:15.233Z,42.70
2023-02-11T08:31:44.611Z,42.13
2023-02-11T08:34:14.593Z,42.05
2023-02-11T08:36:43.577Z,42.25
2023-02-11T08:39:19.564Z,42.63
2023-02-11T08:41:49.970Z,41.83
2023-02-11T08:44:18.086Z,40.85
2023-02-11T08:46:46.067Z,39.40
2023-02-11T08:49:15.632Z,38.30
2023-02-11T08:51:44.211Z,35.72
2023-02-11T08:54:12.437Z,37.17
2023-02-11T08:56:40.622Z,36.40
2023-02-11T08:59:10.333Z,35.90
2023-02-11T09:01:38.424Z,35.45
2023-02-11T09:04:06.485Z,41.53
2023-02-11T09:06:35.884Z,36.53
2023-02-11T09:09:03.939Z,35.42
2023-02-11T09:11:33.277Z,34.72
2023-02-11T09:14:01.624Z,36.50
2023-02-11T09:16:30.985Z,37.47
2023-02-11T09:18:59.383Z,38.95
2023-02-11T09:21:27.780Z,37.03
2023-02-11T09:23:57.472Z,42.70
2023-02-11T09:26:26.587Z,40.15
2023-02-11T09:28:54.700Z,39.00
2023-02-11T09:31:24.331Z,40.88
2023-02-11T09:33:53.729Z,37.40
2023-02-11T09:36:22.188Z,37.38
2023-02-11T09:38:50.439Z,39.80
2023-02-11T09:41:36.154Z,39.38
2023-02-11T09:44:07.340Z,38.55
2023-02-11T09:46:37.621Z,39.92
2023-02-11T09:49:05.935Z,37.65
2023-02-11T09:51:36.598Z,38.78
2023-02-11T09:54:06.906Z,38.35
2023-02-11T09:56:34.823Z,38.63
2023-02-11T09:59:02.797Z,40.53
2023-02-11T10:01:37.074Z,40.38
2023-02-11T10:04:06.711Z,39.10
2023-02-11T10:06:39.463Z,37.75
2023-02-11T10:09:11.987Z,39.28
2023-02-11T10:11:43.476Z,40.22
2023-02-11T10:14:19.140Z,39.47
2023-02-11T10:16:53.416Z,38.85
2023-02-11T10:19:29.222Z,40.60
2023-02-11T10:22:01.048Z,42.70
2023-02-11T10:24:29.507Z,41.92
2023-02-11T10:26:57.352Z,42.88
2023-02-11T10:29:33.796Z,41.97
2023-02-11T10:32:05.829Z,39.33
2023-02-11T10:34:33.833Z,40.03
2023-02-11T10:37:01.721Z,38.22
2023-02-11T10:39:29.768Z,37.85
2023-02-11T10:42:00.641Z,36.33
2023-02-11T10:44:31.557Z,38.28
2023-02-11T10:47:01.566Z,37.15
2023-02-11T10:49:38.753Z,38.30
2023-02-11T10:52:14.029Z,36.58
2023-02-11T10:54:42.540Z,37.22
2023-02-11T10:57:17.973Z,36.38
2023-02-11T10:59:46.241Z,37.05
2023-02-11T11:02:22.529Z,38.95
2023-02-11T11:04:57.129Z,36.95
2023-02-11T11:07:27.265Z,37.22
2023-02-11T11:09:56.749Z,38.70
2023-02-11T11:12:32.478Z,37.65
2023-02-11T11:15:01.255Z,38.17
2023-02-11T11:17:29.757Z,38.58
2023-02-11T11:20:13.120Z,37.22
2023-02-11T11:22:42.919Z,36.45
2023-02-11T11:25:24.509Z,35.15
2023-02-11T11:27:53.734Z,36.78
2023-02-11T11:30:22.154Z,36.40
2023-02-11T11:32:50.205Z,38.78
2023-02-11T11:35:26.097Z,38.88
2023-02-11T11:37:56.747Z,35.08
2023-02-11T11:40:25.966Z,36.95
2023-02-11T11:43:05.029Z,35.90
2023-02-11T11:45:32.989Z,32.97
2023-02-11T11:48:01.799Z,35.40
2023-02-11T11:50:35.875Z,34.80
2023-02-11T11:53:08.787Z,34.20
2023-02-11T11:55:39.809Z,32.97
2023-02-11T11:58:11.951Z,32.80
2023-02-11T12:00:45.747Z,32.42
2023-02-11T12:03:28.504Z,32.45
2023-02-11T12:06:04.273Z,30.50
2023-02-11T12:08:39.224Z,31.10
2023-02-11T12:11:14.417Z,28.10
2023-02-11T12:13:47.838Z,27.05
2023-02-11T12:16:21.787Z,28.27
2023-02-11T12:18:56.864Z,27.33
2023-02-11T12:21:31.887Z,25.98
2023-02-11T12:24:07.737Z,28.23
2023-02-11T12:26:40.632Z,26.45
2023-02-11T12:29:12.710Z,28.77
2023-02-11T12:31:54.652Z,28.83
2023-02-11T12:34:40.381Z,27.83
2023-02-11T12:37:15.524Z,27.80
2023-02-11T12:39:48.595Z,24.92
2023-02-11T12:42:39.659Z,26.35
2023-02-11T12:45:15.172Z,27.67
2023-02-11T12:47:48.642Z,26.58
2023-02-11T12:50:21.208Z,26.67
2023-02-11T12:52:56.352Z,26.02
2023-02-11T12:55:26.893Z,24.33
2023-02-11T12:57:55.535Z,23.13
2023-02-11T13:00:24.907Z,25.90
2023-02-11T13:02:56.946Z,23.73
2023-02-11T13:05:27.428Z,23.48
2023-02-11T13:07:59.504Z,24.00
2023-02-11T13:10:30.542Z,22.52
2023-02-11T13:13:17.921Z,23.00
2023-02-11T13:15:46.994Z,21.33
2023-02-11T13:18:19.249Z,23.08
2023-02-11T13:20:51.104Z,20.35
2023-02-11T13:23:22.718Z,21.08
2023-02-11T13:25:55.908Z,21.42
2023-02-11T13:28:27.091Z,21.67
2023-02-11T13:31:03.057Z,21.77
2023-02-11T13:33:36.309Z,20.30
2023-02-11T13:36:15.594Z,20.27
2023-02-11T13:38:52.149Z,21.35
2023-02-11T13:41:24.822Z,21.17
2023-02-11T13:43:59.990Z,22.15
2023-02-11T13:46:29.986Z,20.25
2023-02-11T13:48:58.351Z,19.27
2023-02-11T13:51:37.204Z,22.60
2023-02-11T13:54:06.044Z,21.20
2023-02-11T13:56:36.480Z,20.98
2023-02-11T13:59:05.626Z,20.85
2023-02-11T14:02:06.122Z,20.55
2023-02-11T14:04:51.949Z,20.33
2023-02-11T14:07:45.863Z,20.95
2023-02-11T14:10:32.607Z,20.30
2023-02-11T14:13:19.049Z,21.02
2023-02-11T14:15:47.420Z,21.73
2023-02-11T14:18:39.093Z,22.65
2023-02-11T14:21:13.303Z,22.05
2023-02-11T14:23:42.108Z,21.70
2023-02-11T14:26:24.130Z,21.42
2023-02-11T14:28:55.838Z,23.08
2023-02-11T14:31:26.414Z,22.52
2023-02-11T14:34:06.984Z,22.08
2023-02-11T14:36:46.519Z,22.25
2023-02-11T14:39:21.362Z,21.30
2023-02-11T14:41:51.098Z,21.60
2023-02-11T14:44:22.279Z,21.73
2023-02-11T14:46:52.658Z,22.40
2023-02-11T14:49:25.160Z,22.42
2023-02-11T14:51:55.583Z,22.33
2023-02-11T14:54:25.394Z,22.45
2023-02-11T14:57:09.851Z,22.50
2023-02-11T14:59:39.259Z,23.98
2023-02-11T15:02:21.027Z,24.35
2023-02-11T15:04:49.076Z,22.45
2023-02-11T15:07:17.417Z,23.10
2023-02-11T15:09:47.174Z,21.85
2023-02-11T15:12:17.945Z,21.83
2023-02-11T15:14:49.550Z,23.35
2023-02-11T15:17:20.282Z,22.38
2023-02-11T15:19:49.916Z,23.30
2023-02-11T15:22:21.432Z,23.52
2023-02-11T15:24:59.375Z,23.40
2023-02-11T15:27:27.419Z,24.10
2023-02-11T15:29:56.617Z,23.73
2023-02-11T15:32:25.492Z,23.30
2023-02-11T15:34:56.833Z,24.55
2023-02-11T15:37:25.438Z,22.83
2023-02-11T15:39:53.853Z,23.50
2023-02-11T15:42:23.202Z,23.05
2023-02-11T15:44:56.568Z,22.45
2023-02-11T15:47:26.270Z,24.30
2023-02-11T15:49:54.285Z,23.40
2023-02-11T15:52:25.096Z,23.63
2023-02-11T15:54:53.901Z,22.88
2023-02-11T15:57:22.708Z,23.05
2023-02-11T15:59:52.022Z,24.23
2023-02-11T16:02:21.988Z,26.20
2023-02-11T16:04:55.547Z,24.13
2023-02-11T16:07:39.676Z,23.38
2023-02-11T16:10:17.344Z,22.67
2023-02-11T16:12:51.764Z,25.48
2023-02-11T16:15:46.872Z,23.05
2023-02-11T16:18:21.951Z,24.33
2023-02-11T16:20:54.280Z,25.17
2023-02-11T16:23:24.444Z,24.48
2023-02-11T16:25:56.661Z,25.77
2023-02-11T16:28:25.029Z,23.83
2023-02-11T16:30:54.693Z,23.75
2023-02-11T16:33:23.887Z,24.27
2023-02-11T16:35:53.243Z,23.73
2023-02-11T16:38:21.139Z,23.17
2023-02-11T16:40:50.766Z,25.27
2023-02-11T16:43:19.764Z,26.70
2023-02-11T16:45:47.740Z,24.80
2023-02-11T16:48:18.265Z,25.70
2023-02-11T16:50:48.603Z,24.90
2023-02-11T16:53:20.582Z,25.90
2023-02-11T16:55:48.766Z,28.33
2023-02-11T16:58:16.641Z,26.40
2023-02-11T17:00:46.114Z,26.48
2023-02-11T17:03:17.537Z,25.17
2023-02-11T17:05:55.401Z,22.50
2023-02-11T17:08:25.048Z,24.60
2023-02-11T17:10:53.576Z,24.05
2023-02-11T17:13:21.913Z,24.45
2023-02-11T17:15:51.251Z,25.48
2023-02-11T17:18:19.504Z,24.00
2023-02-11T17:20:47.809Z,24.83
2023-02-11T17:23:15.855Z,23.23
2023-02-11T17:25:47.085Z,24.55
2023-02-11T17:28:14.988Z,24.90
2023-02-11T17:30:44.535Z,26.38
2023-02-11T17:33:13.075Z,26.30
2023-02-11T17:35:41.805Z,26.35
2023-02-11T17:38:09.701Z,24.45
2023-02-11T17:40:37.824Z,24.00
2023-02-11T17:43:07.156Z,25.15
2023-02-11T17:45:36.179Z,25.90
2023-02-11T17:48:04.135Z,24.52
2023-02-11T17:50:32.109Z,26.05
2023-02-11T17:53:00.892Z,23.77
2023-02-11T17:55:28.967Z,25.02
2023-02-11T17:58:00.195Z,24.08
2023-02-11T18:00:37.180Z,25.42
2023-02-11T18:03:05.552Z,22.90
2023-02-11T18:05:36.949Z,24.35
2023-02-11T18:08:05.257Z,25.40
2023-02-11T18:10:34.165Z,23.10
2023-02-11T18:13:02.164Z,24.55
2023-02-11T18:15:31.595Z,25.35
2023-02-11T18:17:59.580Z,26.42
2023-02-11T18:20:27.453Z,24.33
2023-02-11T18:22:55.361Z,23.35
2023-02-11T18:25:23.557Z,23.60
2023-02-11T18:27:51.700Z,24.10
2023-02-11T18:30:20.359Z,25.77
2023-02-11T18:32:54.152Z,24.45
2023-02-11T18:35:22.491Z,25.00
2023-02-11T18:37:50.519Z,22.65
2023-02-11T18:40:18.579Z,25.48
2023-02-11T18:42:47.539Z,26.45
2023-02-11T18:45:16.148Z,25.65
2023-02-11T18:47:44.208Z,26.95
2023-02-11T18:50:16.475Z,25.65
2023-02-11T18:52:45.007Z,25.95
2023-02-11T18:55:13.260Z,25.20
2023-02-11T18:57:41.333Z,27.67
2023-02-11T19:00:10.446Z,26.92
2023-02-11T19:02:38.415Z,25.80
2023-02-11T19:05:07.197Z,26.15
2023-02-11T19:07:36.580Z,24.65
2023-02-11T19:10:04.829Z,23.75
2023-02-11T19:12:33.374Z,24.58
2023-02-11T19:15:01.678Z,25.27
2023-02-11T19:17:29.681Z,24.00
2023-02-11T19:19:57.787Z,23.73
2023-02-11T19:22:25.792Z,24.98
2023-02-11T19:24:55.183Z,25.73
2023-02-11T19:27:23.103Z,25.13
2023-02-11T19:29:51.067Z,24.65
2023-02-11T19:32:19.262Z,25.40
2023-02-11T19:34:47.339Z,24.45
2023-02-11T19:37:15.471Z,24.73
2023-02-11T19:39:44.080Z,24.17
2023-02-11T19:42:13.781Z,26.50
2023-02-11T19:44:42.362Z,26.17
2023-02-11T19:47:10.851Z,25.33
2023-02-11T19:49:38.906Z,24.13
2023-02-11T19:52:06.933Z,24.95
2023-02-11T19:54:35.034Z,24.90
2023-02-11T19:57:03.073Z,23.95
2023-02-11T19:59:32.393Z,23.98
2023-02-11T20:02:01.613Z,26.92
2023-02-11T20:04:32.223Z,32.58
2023-02-11T20:07:00.408Z,25.85
2023-02-11T20:09:29.119Z,24.92
2023-02-11T20:11:57.026Z,23.95
2023-02-11T20:14:27.564Z,23.85
2023-02-11T20:16:57.423Z,22.95
2023-02-11T20:19:25.524Z,23.65
2023-02-11T20:21:55.857Z,23.10
2023-02-11T20:24:24.912Z,22.25
2023-02-11T20:26:55.755Z,24.83
2023-02-11T20:29:25.189Z,22.65
2023-02-11T20:31:53.154Z,24.40
2023-02-11T20:34:22.818Z,24.00
2023-02-11T20:36:52.888Z,22.38
2023-02-11T20:39:22.463Z,22.50
2023-02-11T20:41:50.909Z,22.45
2023-02-11T20:44:19.370Z,22.77
2023-02-11T20:46:47.553Z,22.08
2023-02-11T20:49:16.324Z,22.88
2023-02-11T20:51:45.739Z,22.48
2023-02-11T20:54:14.928Z,20.35
2023-02-11T20:56:44.482Z,22.23
2023-02-11T20:59:14.239Z,22.23
2023-02-11T21:01:43.857Z,22.27
2023-02-11T21:04:12.918Z,22.52
2023-02-11T21:06:42.952Z,20.67
2023-02-11T21:09:14.216Z,21.90
2023-02-11T21:11:42.859Z,20.90
2023-02-11T21:14:11.173Z,23.90
2023-02-11T21:16:39.087Z,21.15
2023-02-11T21:19:07.175Z,20.48
2023-02-11T21:21:36.037Z,21.30
2023-02-11T21:24:03.993Z,22.40
2023-02-11T21:26:33.886Z,22.80
2023-02-11T21:29:01.749Z,22.63
2023-02-11T21:31:31.083Z,21.67
2023-02-11T21:33:59.693Z,22.13
2023-02-11T21:36:28.142Z,22.65
2023-02-11T21:38:56.096Z,23.38
2023-02-11T21:41:24.910Z,22.35
2023-02-11T21:43:54.532Z,21.25
2023-02-11T21:46:23.008Z,21.95
2023-02-11T21:48:51.338Z,21.15
2023-02-11T21:51:20.038Z,22.80
2023-02-11T21:53:48.324Z,21.38
2023-02-11T21:56:17.720Z,22.67
2023-02-11T21:58:46.510Z,21.60
2023-02-11T22:01:17.475Z,20.42
2023-02-11T22:03:46.076Z,21.83
2023-02-11T22:06:14.977Z,21.23
2023-02-11T22:08:43.313Z,21.60
2023-02-11T22:11:12.226Z,21.58
2023-02-11T22:13:41.722Z,20.55
2023-02-11T22:16:10.734Z,21.15
2023-02-11T22:18:40.949Z,19.90
2023-02-11T22:21:09.463Z,21.13
2023-02-11T22:23:38.286Z,20.67
2023-02-11T22:26:07.582Z,21.60
2023-02-11T22:28:37.160Z,21.92
2023-02-11T22:31:05.376Z,21.30
2023-02-11T22:33:33.274Z,22.08
2023-02-11T22:36:03.522Z,19.95
2023-02-11T22:38:32.499Z,20.80
2023-02-11T22:41:00.751Z,20.42
2023-02-11T22:43:29.067Z,19.23
2023-02-11T22:46:00.683Z,20.23
2023-02-11T22:48:30.891Z,22.65
2023-02-11T22:51:04.387Z,20.83
2023-02-11T22:53:33.903Z,22.33
2023-02-11T22:56:05.410Z,22.58
2023-02-11T22:58:33.401Z,21.85
2023-02-11T23:01:01.607Z,19.85
2023-02-11T23:03:29.726Z,20.88
2023-02-11T23:05:59.400Z,21.13
2023-02-11T23:08:27.905Z,22.63
2023-02-11T23:10:57.277Z,21.13
2023-02-11T23:13:25.222Z,20.45
2023-02-11T23:15:53.379Z,21.08
2023-02-11T23:18:21.542Z,20.20
2023-02-11T23:20:49.498Z,21.60
2023-02-11T23:23:17.377Z,22.73
2023-02-11T23:25:45.696Z,21.40
2023-02-11T23:28:15.492Z,20.92
2023-02-11T23:30:44.342Z,22.02
2023-02-11T23:33:13.686Z,22.17
2023-02-11T23:35:41.598Z,21.73
2023-02-11T23:38:09.588Z,21.35
2023-02-11T23:40:37.469Z,22.33
2023-02-11T23:43:05.455Z,20.40
2023-02-11T23:45:34.805Z,20.48
2023-02-11T23:48:02.734Z,20.92
2023-02-11T23:50:32.734Z,20.42
2023-02-11T23:53:00.614Z,20.40
2023-02-11T23:55:28.591Z,21.35
2023-02-11T23:57:56.664Z,20.90
